sensor_id;sensor_type;location;lat;lon;timestamp;temperature;humidity
59208;DHT22;44977;53.132;6.408;2023-02-03T00:01:16;8.60;99.90
59208;DHT22;44977;53.132;6.408;2023-02-03T00:06:17;8.70;99.90
59208;DHT22;44977;53.132;6.408;2023-02-03T00:11:18;8.60;99.90
59208;DHT22;44977;53.132;6.408;2023-02-03T00:16:18;8.70;99.90
59208;DHT22;44977;53.132;6.408;2023-02-03T00:21:19;8.70;99.90
59208;DHT22;44977;53.132;6.408;2023-02-03T00:26:20;8.70;99.90
59208;DHT22;44977;53.132;6.408;2023-02-03T00:31:22;8.70;99.90
59208;DHT22;44977;53.132;6.408;2023-02-03T00:36:24;8.70;99.90
59208;DHT22;44977;53.132;6.408;2023-02-03T00:41:28;8.70;99.90
59208;DHT22;44977;53.132;6.408;2023-02-03T00:46:30;8.60;99.90
59208;DHT22;44977;53.132;6.408;2023-02-03T00:51:32;8.60;99.90
59208;DHT22;44977;53.132;6.408;2023-02-03T00:56:32;8.70;99.90
59208;DHT22;44977;53.132;6.408;2023-02-03T01:01:34;8.70;99.90
59208;DHT22;44977;53.132;6.408;2023-02-03T01:06:35;8.60;99.90
59208;DHT22;44977;53.132;6.408;2023-02-03T01:11:35;8.60;99.90
59208;DHT22;44977;53.132;6.408;2023-02-03T01:16:36;8.60;99.90
59208;DHT22;44977;53.132;6.408;2023-02-03T01:21:37;8.60;99.90
59208;DHT22;44977;53.132;6.408;2023-02-03T01:26:38;8.70;99.90
59208;DHT22;44977;53.132;6.408;2023-02-03T01:31:40;8.70;99.90
59208;DHT22;44977;53.132;6.408;2023-02-03T01:36:41;8.70;99.90
59208;DHT22;44977;53.132;6.408;2023-02-03T01:41:42;8.70;99.90
59208;DHT22;44977;53.132;6.408;2023-02-03T01:46:47;8.70;99.90
59208;DHT22;44977;53.132;6.408;2023-02-03T01:51:48;8.70;99.90
59208;DHT22;44977;53.132;6.408;2023-02-03T01:56:59;8.70;99.90
59208;DHT22;44977;53.132;6.408;2023-02-03T02:02:02;8.70;99.90
59208;DHT22;44977;53.132;6.408;2023-02-03T02:07:05;8.70;99.90
59208;DHT22;44977;53.132;6.408;2023-02-03T02:12:09;8.70;99.90
59208;DHT22;44977;53.132;6.408;2023-02-03T02:17:17;8.80;99.90
59208;DHT22;44977;53.132;6.408;2023-02-03T02:28:07;8.70;99.90
59208;DHT22;44977;53.132;6.408;2023-02-03T02:38:44;8.70;99.90
59208;DHT22;44977;53.132;6.408;2023-02-03T02:43:46;8.70;99.90
59208;DHT22;44977;53.132;6.408;2023-02-03T02:48:56;8.70;99.90
59208;DHT22;44977;53.132;6.408;2023-02-03T02:54:02;8.70;99.90
59208;DHT22;44977;53.132;6.408;2023-02-03T02:59:05;8.70;99.90
59208;DHT22;44977;53.132;6.408;2023-02-03T03:04:09;8.70;99.90
59208;DHT22;44977;53.132;6.408;2023-02-03T03:09:15;8.70;99.90
59208;DHT22;44977;53.132;6.408;2023-02-03T03:14:18;8.70;99.90
59208;DHT22;44977;53.132;6.408;2023-02-03T03:19:23;8.70;99.90
59208;DHT22;44977;53.132;6.408;2023-02-03T03:24:28;8.70;99.90
59208;DHT22;44977;53.132;6.408;2023-02-03T03:29:37;8.60;99.90
59208;DHT22;44977;53.132;6.408;2023-02-03T03:34:40;8.60;99.90
59208;DHT22;44977;53.132;6.408;2023-02-03T03:39:59;8.60;99.90
59208;DHT22;44977;53.132;6.408;2023-02-03T03:50:28;8.70;99.90
59208;DHT22;44977;53.132;6.408;2023-02-03T03:55:33;8.70;99.90
59208;DHT22;44977;53.132;6.408;2023-02-03T04:00:37;8.70;99.90
59208;DHT22;44977;53.132;6.408;2023-02-03T04:05:39;8.70;99.90
59208;DHT22;44977;53.132;6.408;2023-02-03T04:10:41;8.70;99.90
59208;DHT22;44977;53.132;6.408;2023-02-03T04:15:42;8.80;99.90
59208;DHT22;44977;53.132;6.408;2023-02-03T04:20:42;8.80;99.90
59208;DHT22;44977;53.132;6.408;2023-02-03T04:25:43;8.80;99.90
59208;DHT22;44977;53.132;6.408;2023-02-03T04:30:44;8.80;99.90
59208;DHT22;44977;53.132;6.408;2023-02-03T04:35:44;8.80;99.90
59208;DHT22;44977;53.132;6.408;2023-02-03T04:40:45;8.80;99.90
59208;DHT22;44977;53.132;6.408;2023-02-03T04:45:46;8.90;99.90
59208;DHT22;44977;53.132;6.408;2023-02-03T04:50:47;8.90;99.90
59208;DHT22;44977;53.132;6.408;2023-02-03T04:55:47;8.90;99.90
59208;DHT22;44977;53.132;6.408;2023-02-03T05:00:48;8.90;99.90
59208;DHT22;44977;53.132;6.408;2023-02-03T05:05:49;8.80;99.90
59208;DHT22;44977;53.132;6.408;2023-02-03T05:10:50;8.80;99.90
59208;DHT22;44977;53.132;6.408;2023-02-03T05:15:51;8.80;99.90
59208;DHT22;44977;53.132;6.408;2023-02-03T05:20:51;8.90;99.90
59208;DHT22;44977;53.132;6.408;2023-02-03T05:25:52;8.90;99.90
59208;DHT22;44977;53.132;6.408;2023-02-03T05:30:53;8.80;99.90
59208;DHT22;44977;53.132;6.408;2023-02-03T05:35:53;8.80;99.90
59208;DHT22;44977;53.132;6.408;2023-02-03T05:40:54;8.80;99.90
59208;DHT22;44977;53.132;6.408;2023-02-03T05:46:14;8.80;99.90
59208;DHT22;44977;53.132;6.408;2023-02-03T05:51:14;8.90;99.90
59208;DHT22;44977;53.132;6.408;2023-02-03T05:56:15;8.80;99.90
59208;DHT22;44977;53.132;6.408;2023-02-03T06:01:16;8.80;99.90
59208;DHT22;44977;53.132;6.408;2023-02-03T06:06:17;8.80;99.90
59208;DHT22;44977;53.132;6.408;2023-02-03T06:11:17;8.80;99.90
59208;DHT22;44977;53.132;6.408;2023-02-03T06:16:18;8.80;99.90
59208;DHT22;44977;53.132;6.408;2023-02-03T06:21:19;8.80;99.90
59208;DHT22;44977;53.132;6.408;2023-02-03T06:26:21;8.90;99.90
59208;DHT22;44977;53.132;6.408;2023-02-03T06:31:22;8.80;99.90
59208;DHT22;44977;53.132;6.408;2023-02-03T06:36:23;8.80;99.90
59208;DHT22;44977;53.132;6.408;2023-02-03T06:41:23;8.80;99.90
59208;DHT22;44977;53.132;6.408;2023-02-03T06:46:28;8.80;99.90
59208;DHT22;44977;53.132;6.408;2023-02-03T06:51:29;8.80;99.90
59208;DHT22;44977;53.132;6.408;2023-02-03T06:56:30;8.80;99.90
59208;DHT22;44977;53.132;6.408;2023-02-03T07:01:31;8.80;99.90
59208;DHT22;44977;53.132;6.408;2023-02-03T07:06:32;8.80;99.90
59208;DHT22;44977;53.132;6.408;2023-02-03T07:11:33;8.80;99.90
59208;DHT22;44977;53.132;6.408;2023-02-03T07:16:34;8.90;99.90
59208;DHT22;44977;53.132;6.408;2023-02-03T07:21:36;8.80;99.90
59208;DHT22;44977;53.132;6.408;2023-02-03T07:26:37;8.80;99.90
59208;DHT22;44977;53.132;6.408;2023-02-03T07:31:38;8.70;99.90
59208;DHT22;44977;53.132;6.408;2023-02-03T07:36:39;8.70;99.90
59208;DHT22;44977;53.132;6.408;2023-02-03T07:41:40;8.60;99.90
59208;DHT22;44977;53.132;6.408;2023-02-03T07:46:41;8.60;99.90
59208;DHT22;44977;53.132;6.408;2023-02-03T07:51:44;8.60;99.90
59208;DHT22;44977;53.132;6.408;2023-02-03T07:56:44;8.60;99.90
59208;DHT22;44977;53.132;6.408;2023-02-03T08:01:45;8.60;99.90
59208;DHT22;44977;53.132;6.408;2023-02-03T08:06:46;8.70;99.90
59208;DHT22;44977;53.132;6.408;2023-02-03T08:11:46;8.70;99.90
59208;DHT22;44977;53.132;6.408;2023-02-03T08:16:48;8.70;99.90
59208;DHT22;44977;53.132;6.408;2023-02-03T08:21:49;8.70;99.90
59208;DHT22;44977;53.132;6.408;2023-02-03T08:26:50;8.80;99.90
59208;DHT22;44977;53.132;6.408;2023-02-03T08:31:52;8.80;99.90
59208;DHT22;44977;53.132;6.408;2023-02-03T08:36:54;8.80;99.90
59208;DHT22;44977;53.132;6.408;2023-02-03T08:41:54;8.80;99.90
59208;DHT22;44977;53.132;6.408;2023-02-03T08:46:56;8.80;99.90
59208;DHT22;44977;53.132;6.408;2023-02-03T08:51:57;8.80;99.90
59208;DHT22;44977;53.132;6.408;2023-02-03T08:56:58;8.80;99.90
59208;DHT22;44977;53.132;6.408;2023-02-03T09:01:59;8.90;99.90
59208;DHT22;44977;53.132;6.408;2023-02-03T09:07:00;8.90;99.90
59208;DHT22;44977;53.132;6.408;2023-02-03T09:12:05;8.90;99.90
59208;DHT22;44977;53.132;6.408;2023-02-03T09:17:06;8.90;99.90
59208;DHT22;44977;53.132;6.408;2023-02-03T09:22:09;8.90;99.90
59208;DHT22;44977;53.132;6.408;2023-02-03T09:27:10;8.90;99.90
59208;DHT22;44977;53.132;6.408;2023-02-03T09:32:11;9.00;99.90
59208;DHT22;44977;53.132;6.408;2023-02-03T09:37:12;9.00;99.90
59208;DHT22;44977;53.132;6.408;2023-02-03T09:47:23;9.10;99.90
59208;DHT22;44977;53.132;6.408;2023-02-03T09:52:25;9.20;99.90
59208;DHT22;44977;53.132;6.408;2023-02-03T09:57:29;9.20;99.90
59208;DHT22;44977;53.132;6.408;2023-02-03T10:08:12;9.30;99.90
59208;DHT22;44977;53.132;6.408;2023-02-03T10:18:44;9.30;99.90
59208;DHT22;44977;53.132;6.408;2023-02-03T10:23:45;9.30;99.90
59208;DHT22;44977;53.132;6.408;2023-02-03T10:28:57;9.30;99.90
59208;DHT22;44977;53.132;6.408;2023-02-03T10:34:09;9.30;99.90
59208;DHT22;44977;53.132;6.408;2023-02-03T10:44:12;9.40;99.90
59208;DHT22;44977;53.132;6.408;2023-02-03T10:49:14;9.40;99.90
59208;DHT22;44977;53.132;6.408;2023-02-03T10:54:29;9.50;99.90
59208;DHT22;44977;53.132;6.408;2023-02-03T10:59:34;9.60;99.90
59208;DHT22;44977;53.132;6.408;2023-02-03T11:04:37;9.60;99.90
59208;DHT22;44977;53.132;6.408;2023-02-03T11:09:39;9.60;99.90
59208;DHT22;44977;53.132;6.408;2023-02-03T11:14:46;9.60;99.90
59208;DHT22;44977;53.132;6.408;2023-02-03T11:19:50;9.60;99.90
59208;DHT22;44977;53.132;6.408;2023-02-03T11:24:51;9.60;99.90
59208;DHT22;44977;53.132;6.408;2023-02-03T11:30:12;9.60;99.90
59208;DHT22;44977;53.132;6.408;2023-02-03T11:35:17;9.60;99.90
59208;DHT22;44977;53.132;6.408;2023-02-03T11:45:36;9.70;99.90
59208;DHT22;44977;53.132;6.408;2023-02-03T11:50:56;9.60;99.90
59208;DHT22;44977;53.132;6.408;2023-02-03T12:07:21;9.50;99.90
59208;DHT22;44977;53.132;6.408;2023-02-03T12:17:57;9.40;99.90
59208;DHT22;44977;53.132;6.408;2023-02-03T12:23:08;9.40;99.90
59208;DHT22;44977;53.132;6.408;2023-02-03T12:28:27;9.30;99.90
59208;DHT22;44977;53.132;6.408;2023-02-03T12:33:34;9.30;99.90
59208;DHT22;44977;53.132;6.408;2023-02-03T12:38:42;9.20;99.90
59208;DHT22;44977;53.132;6.408;2023-02-03T12:43:45;9.20;99.90
59208;DHT22;44977;53.132;6.408;2023-02-03T12:54:24;9.20;99.90
59208;DHT22;44977;53.132;6.408;2023-02-03T12:59:29;9.20;99.90
59208;DHT22;44977;53.132;6.408;2023-02-03T13:04:35;9.10;99.90
59208;DHT22;44977;53.132;6.408;2023-02-03T13:09:47;9.20;99.90
59208;DHT22;44977;53.132;6.408;2023-02-03T13:15:05;9.10;99.90
59208;DHT22;44977;53.132;6.408;2023-02-03T13:20:21;9.10;99.90
59208;DHT22;44977;53.132;6.408;2023-02-03T13:31:04;9.20;99.90
59208;DHT22;44977;53.132;6.408;2023-02-03T13:36:29;9.20;99.90
59208;DHT22;44977;53.132;6.408;2023-02-03T13:41:54;9.20;99.90
59208;DHT22;44977;53.132;6.408;2023-02-03T13:46:56;9.10;99.90
59208;DHT22;44977;53.132;6.408;2023-02-03T13:51:59;9.00;99.90
59208;DHT22;44977;53.132;6.408;2023-02-03T13:57:05;9.00;99.90
59208;DHT22;44977;53.132;6.408;2023-02-03T14:07:38;9.00;99.90
59208;DHT22;44977;53.132;6.408;2023-02-03T14:22:53;8.80;99.90
59208;DHT22;44977;53.132;6.408;2023-02-03T14:28:19;8.70;99.90
59208;DHT22;44977;53.132;6.408;2023-02-03T14:33:20;8.80;99.90
59208;DHT22;44977;53.132;6.408;2023-02-03T14:38:30;8.70;99.90
59208;DHT22;44977;53.132;6.408;2023-02-03T14:43:38;8.70;99.90
59208;DHT22;44977;53.132;6.408;2023-02-03T14:59:03;8.70;99.90
59208;DHT22;44977;53.132;6.408;2023-02-03T15:14:34;8.60;99.90
59208;DHT22;44977;53.132;6.408;2023-02-03T15:19:38;8.60;99.90
59208;DHT22;44977;53.132;6.408;2023-02-03T15:24:39;8.60;99.90
59208;DHT22;44977;53.132;6.408;2023-02-03T15:29:40;8.60;99.90
59208;DHT22;44977;53.132;6.408;2023-02-03T15:34:44;8.60;99.90
59208;DHT22;44977;53.132;6.408;2023-02-03T15:45:01;8.50;99.90
59208;DHT22;44977;53.132;6.408;2023-02-03T15:55:32;8.40;99.90
59208;DHT22;44977;53.132;6.408;2023-02-03T16:00:37;8.40;99.90
59208;DHT22;44977;53.132;6.408;2023-02-03T16:05:40;8.30;99.90
59208;DHT22;44977;53.132;6.408;2023-02-03T16:10:41;8.30;99.90
59208;DHT22;44977;53.132;6.408;2023-02-03T16:15:42;8.20;99.90
59208;DHT22;44977;53.132;6.408;2023-02-03T16:20:50;8.20;99.90
59208;DHT22;44977;53.132;6.408;2023-02-03T16:36:33;8.00;99.90
59208;DHT22;44977;53.132;6.408;2023-02-03T16:41:52;8.10;99.90
59208;DHT22;44977;53.132;6.408;2023-02-03T16:47:37;8.00;99.90
59208;DHT22;44977;53.132;6.408;2023-02-03T16:52:57;8.00;99.90
59208;DHT22;44977;53.132;6.408;2023-02-03T16:57:57;8.00;99.90
59208;DHT22;44977;53.132;6.408;2023-02-03T17:03:02;7.90;99.90
59208;DHT22;44977;53.132;6.408;2023-02-03T17:08:04;7.90;99.90
59208;DHT22;44977;53.132;6.408;2023-02-03T17:13:05;7.90;99.90
59208;DHT22;44977;53.132;6.408;2023-02-03T17:18:07;7.90;99.90
59208;DHT22;44977;53.132;6.408;2023-02-03T17:23:08;7.90;99.90
59208;DHT22;44977;53.132;6.408;2023-02-03T17:28:10;7.90;99.90
59208;DHT22;44977;53.132;6.408;2023-02-03T17:33:12;7.90;99.90
59208;DHT22;44977;53.132;6.408;2023-02-03T17:38:15;7.90;99.90
59208;DHT22;44977;53.132;6.408;2023-02-03T17:43:16;7.90;99.90
59208;DHT22;44977;53.132;6.408;2023-02-03T17:48:18;7.90;99.90
59208;DHT22;44977;53.132;6.408;2023-02-03T17:53:19;7.90;99.90
59208;DHT22;44977;53.132;6.408;2023-02-03T17:58:20;7.80;99.90
59208;DHT22;44977;53.132;6.408;2023-02-03T18:03:21;7.80;99.90
59208;DHT22;44977;53.132;6.408;2023-02-03T18:08:25;7.80;99.90
59208;DHT22;44977;53.132;6.408;2023-02-03T18:13:29;7.80;99.90
59208;DHT22;44977;53.132;6.408;2023-02-03T18:18:33;7.80;99.90
59208;DHT22;44977;53.132;6.408;2023-02-03T18:23:34;7.70;99.90
59208;DHT22;44977;53.132;6.408;2023-02-03T18:28:35;7.80;99.90
59208;DHT22;44977;53.132;6.408;2023-02-03T18:33:37;7.80;99.90
59208;DHT22;44977;53.132;6.408;2023-02-03T18:38:40;7.80;99.90
59208;DHT22;44977;53.132;6.408;2023-02-03T18:43:41;7.70;99.90
59208;DHT22;44977;53.132;6.408;2023-02-03T18:48:42;7.80;99.90
59208;DHT22;44977;53.132;6.408;2023-02-03T18:53:43;7.70;99.90
59208;DHT22;44977;53.132;6.408;2023-02-03T18:58:48;7.80;99.90
59208;DHT22;44977;53.132;6.408;2023-02-03T19:03:50;7.80;99.90
59208;DHT22;44977;53.132;6.408;2023-02-03T19:08:51;7.70;99.90
59208;DHT22;44977;53.132;6.408;2023-02-03T19:13:52;7.70;99.90
59208;DHT22;44977;53.132;6.408;2023-02-03T19:18:53;7.70;99.90
59208;DHT22;44977;53.132;6.408;2023-02-03T19:23:53;7.70;99.90
59208;DHT22;44977;53.132;6.408;2023-02-03T19:28:54;7.60;99.90
59208;DHT22;44977;53.132;6.408;2023-02-03T19:33:58;7.60;99.90
59208;DHT22;44977;53.132;6.408;2023-02-03T19:38:59;7.50;99.90
59208;DHT22;44977;53.132;6.408;2023-02-03T19:44:00;7.50;99.90
59208;DHT22;44977;53.132;6.408;2023-02-03T19:49:00;7.50;99.90
59208;DHT22;44977;53.132;6.408;2023-02-03T19:54:06;7.50;99.90
59208;DHT22;44977;53.132;6.408;2023-02-03T19:59:07;7.40;99.90
59208;DHT22;44977;53.132;6.408;2023-02-03T20:04:08;7.50;99.90
59208;DHT22;44977;53.132;6.408;2023-02-03T20:09:10;7.50;99.90
59208;DHT22;44977;53.132;6.408;2023-02-03T20:14:10;7.50;99.90
59208;DHT22;44977;53.132;6.408;2023-02-03T20:19:12;7.50;99.90
59208;DHT22;44977;53.132;6.408;2023-02-03T20:24:12;7.50;99.90
59208;DHT22;44977;53.132;6.408;2023-02-03T20:29:13;7.50;99.90
59208;DHT22;44977;53.132;6.408;2023-02-03T20:34:14;7.50;99.90
59208;DHT22;44977;53.132;6.408;2023-02-03T20:39:19;7.50;99.90
59208;DHT22;44977;53.132;6.408;2023-02-03T20:44:19;7.50;99.90
59208;DHT22;44977;53.132;6.408;2023-02-03T20:49:20;7.40;99.90
59208;DHT22;44977;53.132;6.408;2023-02-03T20:54:21;7.40;99.90
59208;DHT22;44977;53.132;6.408;2023-02-03T20:59:23;7.40;99.90
59208;DHT22;44977;53.132;6.408;2023-02-03T21:04:25;7.30;99.90
59208;DHT22;44977;53.132;6.408;2023-02-03T21:09:46;7.30;99.90
59208;DHT22;44977;53.132;6.408;2023-02-03T21:14:47;7.30;99.90
59208;DHT22;44977;53.132;6.408;2023-02-03T21:19:49;7.20;99.90
59208;DHT22;44977;53.132;6.408;2023-02-03T21:24:55;7.20;99.90
59208;DHT22;44977;53.132;6.408;2023-02-03T21:29:58;7.20;99.90
59208;DHT22;44977;53.132;6.408;2023-02-03T21:34:59;7.20;99.90
59208;DHT22;44977;53.132;6.408;2023-02-03T21:40:00;7.20;99.90
59208;DHT22;44977;53.132;6.408;2023-02-03T21:45:00;7.20;99.90
59208;DHT22;44977;53.132;6.408;2023-02-03T21:50:01;7.20;99.90
59208;DHT22;44977;53.132;6.408;2023-02-03T21:55:09;7.20;99.90
59208;DHT22;44977;53.132;6.408;2023-02-03T22:00:50;7.20;99.90
59208;DHT22;44977;53.132;6.408;2023-02-03T22:06:11;7.20;99.90
59208;DHT22;44977;53.132;6.408;2023-02-03T22:11:13;7.10;99.90
59208;DHT22;44977;53.132;6.408;2023-02-03T22:16:15;7.10;99.90
59208;DHT22;44977;53.132;6.408;2023-02-03T22:21:16;7.10;99.90
59208;DHT22;44977;53.132;6.408;2023-02-03T22:26:19;7.10;99.90
59208;DHT22;44977;53.132;6.408;2023-02-03T22:31:20;7.00;99.90
59208;DHT22;44977;53.132;6.408;2023-02-03T22:36:21;7.00;99.90
59208;DHT22;44977;53.132;6.408;2023-02-03T22:41:22;7.00;99.90
59208;DHT22;44977;53.132;6.408;2023-02-03T22:46:23;6.90;99.90
59208;DHT22;44977;53.132;6.408;2023-02-03T22:51:24;6.90;99.90
59208;DHT22;44977;53.132;6.408;2023-02-03T22:56:24;6.90;99.90
59208;DHT22;44977;53.132;6.408;2023-02-03T23:01:25;6.90;99.90
59208;DHT22;44977;53.132;6.408;2023-02-03T23:06:26;6.90;99.90
59208;DHT22;44977;53.132;6.408;2023-02-03T23:11:26;6.90;99.90
59208;DHT22;44977;53.132;6.408;2023-02-03T23:16:27;6.90;99.90
59208;DHT22;44977;53.132;6.408;2023-02-03T23:21:28;6.90;99.90
59208;DHT22;44977;53.132;6.408;2023-02-03T23:26:28;6.90;99.90
59208;DHT22;44977;53.132;6.408;2023-02-03T23:31:29;6.80;99.90
59208;DHT22;44977;53.132;6.408;2023-02-03T23:36:30;6.80;99.90
59208;DHT22;44977;53.132;6.408;2023-02-03T23:41:31;6.80;99.90
59208;DHT22;44977;53.132;6.408;2023-02-03T23:46:32;6.80;99.90
59208;DHT22;44977;53.132;6.408;2023-02-03T23:51:33;6.80;99.90
59208;DHT22;44977;53.132;6.408;2023-02-03T23:56:33;6.80;99.90
